sensor_id;sensor_type;location;lat;lon;timestamp;P1;durP1;ratioP1;P2;durP2;ratioP2
261;SDS011;114;48.260;10.988;2023-08-06T00:02:13;5.27;;;4.77;;
261;SDS011;114;48.260;10.988;2023-08-06T00:04:39;5.30;;;5.00;;
261;SDS011;114;48.260;10.988;2023-08-06T00:07:05;5.20;;;4.77;;
261;SDS011;114;48.260;10.988;2023-08-06T00:09:31;8.00;;;5.20;;
261;SDS011;114;48.260;10.988;2023-08-06T00:11:57;5.70;;;5.10;;
261;SDS011;114;48.260;10.988;2023-08-06T00:14:24;6.07;;;4.77;;
261;SDS011;114;48.260;10.988;2023-08-06T00:16:49;5.40;;;4.70;;
261;SDS011;114;48.260;10.988;2023-08-06T00:19:15;5.40;;;5.00;;
261;SDS011;114;48.260;10.988;2023-08-06T00:21:41;5.60;;;5.07;;
261;SDS011;114;48.260;10.988;2023-08-06T00:24:06;5.37;;;4.80;;
261;SDS011;114;48.260;10.988;2023-08-06T00:26:32;9.40;;;5.10;;
261;SDS011;114;48.260;10.988;2023-08-06T00:28:58;9.70;;;5.43;;
261;SDS011;114;48.260;10.988;2023-08-06T00:31:24;13.50;;;5.33;;
261;SDS011;114;48.260;10.988;2023-08-06T00:33:50;6.80;;;5.20;;
261;SDS011;114;48.260;10.988;2023-08-06T00:36:16;7.67;;;5.30;;
261;SDS011;114;48.260;10.988;2023-08-06T00:38:41;5.87;;;5.37;;
261;SDS011;114;48.260;10.988;2023-08-06T00:41:07;6.67;;;6.03;;
261;SDS011;114;48.260;10.988;2023-08-06T00:43:33;8.83;;;6.07;;
261;SDS011;114;48.260;10.988;2023-08-06T00:45:58;6.63;;;5.83;;
261;SDS011;114;48.260;10.988;2023-08-06T00:48:25;7.67;;;6.83;;
261;SDS011;114;48.260;10.988;2023-08-06T00:50:51;7.00;;;6.30;;
261;SDS011;114;48.260;10.988;2023-08-06T00:53:17;13.83;;;6.70;;
261;SDS011;114;48.260;10.988;2023-08-06T00:55:43;8.43;;;6.43;;
261;SDS011;114;48.260;10.988;2023-08-06T00:58:11;7.50;;;6.87;;
261;SDS011;114;48.260;10.988;2023-08-06T01:00:38;8.20;;;7.00;;
261;SDS011;114;48.260;10.988;2023-08-06T01:03:04;8.90;;;6.70;;
261;SDS011;114;48.260;10.988;2023-08-06T01:05:29;7.43;;;6.73;;
261;SDS011;114;48.260;10.988;2023-08-06T01:13:23;7.20;;;6.10;;
261;SDS011;114;48.260;10.988;2023-08-06T01:16:05;5.73;;;5.33;;
261;SDS011;114;48.260;10.988;2023-08-06T01:18:32;6.33;;;5.73;;
261;SDS011;114;48.260;10.988;2023-08-06T01:20:58;7.47;;;6.73;;
261;SDS011;114;48.260;10.988;2023-08-06T01:23:23;8.57;;;6.00;;
261;SDS011;114;48.260;10.988;2023-08-06T01:31:02;7.00;;;4.60;;
261;SDS011;114;48.260;10.988;2023-08-06T01:33:30;5.70;;;4.70;;
261;SDS011;114;48.260;10.988;2023-08-06T01:35:59;4.67;;;3.80;;
261;SDS011;114;48.260;10.988;2023-08-06T01:38:26;5.13;;;4.73;;
261;SDS011;114;48.260;10.988;2023-08-06T01:40:53;5.17;;;4.67;;
261;SDS011;114;48.260;10.988;2023-08-06T01:43:19;4.27;;;3.87;;
261;SDS011;114;48.260;10.988;2023-08-06T01:45:44;4.67;;;4.27;;
261;SDS011;114;48.260;10.988;2023-08-06T01:48:10;5.50;;;3.90;;
261;SDS011;114;48.260;10.988;2023-08-06T01:50:36;4.90;;;3.83;;
261;SDS011;114;48.260;10.988;2023-08-06T01:53:01;4.37;;;3.90;;
261;SDS011;114;48.260;10.988;2023-08-06T01:55:28;8.13;;;3.80;;
261;SDS011;114;48.260;10.988;2023-08-06T01:57:55;4.03;;;2.90;;
261;SDS011;114;48.260;10.988;2023-08-06T02:00:21;3.30;;;3.10;;
261;SDS011;114;48.260;10.988;2023-08-06T02:02:46;3.70;;;3.40;;
261;SDS011;114;48.260;10.988;2023-08-06T02:05:12;3.80;;;3.50;;
261;SDS011;114;48.260;10.988;2023-08-06T02:07:38;4.03;;;3.63;;
261;SDS011;114;48.260;10.988;2023-08-06T02:10:03;3.50;;;3.20;;
261;SDS011;114;48.260;10.988;2023-08-06T02:12:29;3.50;;;3.30;;
261;SDS011;114;48.260;10.988;2023-08-06T02:14:55;4.10;;;3.03;;
261;SDS011;114;48.260;10.988;2023-08-06T02:17:21;3.40;;;3.10;;
261;SDS011;114;48.260;10.988;2023-08-06T02:19:47;4.23;;;3.23;;
261;SDS011;114;48.260;10.988;2023-08-06T02:22:12;3.97;;;3.70;;
261;SDS011;114;48.260;10.988;2023-08-06T02:24:38;3.77;;;3.57;;
261;SDS011;114;48.260;10.988;2023-08-06T02:27:04;3.60;;;3.40;;
261;SDS011;114;48.260;10.988;2023-08-06T02:29:29;6.87;;;3.90;;
261;SDS011;114;48.260;10.988;2023-08-06T02:31:55;4.70;;;3.40;;
261;SDS011;114;48.260;10.988;2023-08-06T02:34:21;4.07;;;3.77;;
261;SDS011;114;48.260;10.988;2023-08-06T02:36:48;4.77;;;3.50;;
261;SDS011;114;48.260;10.988;2023-08-06T02:39:13;9.57;;;4.23;;
261;SDS011;114;48.260;10.988;2023-08-06T02:41:39;5.33;;;4.10;;
261;SDS011;114;48.260;10.988;2023-08-06T02:44:05;6.10;;;3.80;;
261;SDS011;114;48.260;10.988;2023-08-06T02:46:30;3.83;;;3.53;;
261;SDS011;114;48.260;10.988;2023-08-06T02:48:56;3.90;;;3.60;;
261;SDS011;114;48.260;10.988;2023-08-06T02:51:22;3.80;;;3.60;;
261;SDS011;114;48.260;10.988;2023-08-06T02:53:48;5.13;;;4.47;;
261;SDS011;114;48.260;10.988;2023-08-06T02:56:14;4.10;;;3.70;;
261;SDS011;114;48.260;10.988;2023-08-06T02:58:40;4.17;;;3.80;;
261;SDS011;114;48.260;10.988;2023-08-06T03:01:06;3.70;;;3.50;;
261;SDS011;114;48.260;10.988;2023-08-06T03:03:32;5.13;;;3.97;;
261;SDS011;114;48.260;10.988;2023-08-06T03:05:59;5.77;;;3.80;;
261;SDS011;114;48.260;10.988;2023-08-06T03:08:25;4.40;;;4.10;;
261;SDS011;114;48.260;10.988;2023-08-06T03:10:51;7.73;;;4.07;;
261;SDS011;114;48.260;10.988;2023-08-06T03:13:17;8.73;;;3.60;;
261;SDS011;114;48.260;10.988;2023-08-06T03:15:43;4.10;;;3.80;;
261;SDS011;114;48.260;10.988;2023-08-06T03:18:19;3.40;;;3.10;;
261;SDS011;114;48.260;10.988;2023-08-06T03:20:45;4.00;;;3.70;;
261;SDS011;114;48.260;10.988;2023-08-06T03:23:10;3.23;;;3.03;;
261;SDS011;114;48.260;10.988;2023-08-06T03:25:36;4.10;;;3.80;;
261;SDS011;114;48.260;10.988;2023-08-06T03:28:02;6.07;;;4.20;;
261;SDS011;114;48.260;10.988;2023-08-06T03:30:28;5.80;;;3.67;;
261;SDS011;114;48.260;10.988;2023-08-06T03:32:53;3.80;;;3.37;;
261;SDS011;114;48.260;10.988;2023-08-06T03:35:19;5.43;;;4.17;;
261;SDS011;114;48.260;10.988;2023-08-06T03:37:45;3.83;;;3.40;;
261;SDS011;114;48.260;10.988;2023-08-06T03:40:11;6.30;;;3.30;;
261;SDS011;114;48.260;10.988;2023-08-06T03:42:37;3.97;;;3.67;;
261;SDS011;114;48.260;10.988;2023-08-06T03:45:02;4.27;;;3.97;;
261;SDS011;114;48.260;10.988;2023-08-06T03:47:28;3.53;;;3.33;;
261;SDS011;114;48.260;10.988;2023-08-06T03:49:54;5.90;;;4.10;;
261;SDS011;114;48.260;10.988;2023-08-06T03:52:20;4.00;;;3.70;;
261;SDS011;114;48.260;10.988;2023-08-06T03:54:45;4.10;;;3.80;;
261;SDS011;114;48.260;10.988;2023-08-06T03:57:11;3.97;;;3.70;;
261;SDS011;114;48.260;10.988;2023-08-06T03:59:37;4.20;;;3.63;;
261;SDS011;114;48.260;10.988;2023-08-06T04:02:03;6.87;;;3.50;;
261;SDS011;114;48.260;10.988;2023-08-06T04:04:28;6.20;;;4.60;;
261;SDS011;114;48.260;10.988;2023-08-06T04:06:54;5.03;;;3.40;;
261;SDS011;114;48.260;10.988;2023-08-06T04:09:20;4.43;;;3.10;;
261;SDS011;114;48.260;10.988;2023-08-06T04:11:45;3.50;;;3.30;;
261;SDS011;114;48.260;10.988;2023-08-06T04:14:11;3.20;;;2.80;;
261;SDS011;114;48.260;10.988;2023-08-06T04:16:37;4.73;;;3.67;;
261;SDS011;114;48.260;10.988;2023-08-06T04:19:02;4.90;;;3.37;;
261;SDS011;114;48.260;10.988;2023-08-06T04:21:28;3.90;;;3.00;;
261;SDS011;114;48.260;10.988;2023-08-06T04:23:54;3.33;;;3.07;;
261;SDS011;114;48.260;10.988;2023-08-06T04:26:20;8.13;;;2.80;;
261;SDS011;114;48.260;10.988;2023-08-06T04:28:46;4.23;;;3.97;;
261;SDS011;114;48.260;10.988;2023-08-06T04:31:12;3.57;;;3.20;;
261;SDS011;114;48.260;10.988;2023-08-06T04:33:38;4.20;;;3.00;;
261;SDS011;114;48.260;10.988;2023-08-06T04:36:03;3.07;;;2.87;;
261;SDS011;114;48.260;10.988;2023-08-06T04:38:29;5.80;;;2.40;;
261;SDS011;114;48.260;10.988;2023-08-06T04:40:55;3.40;;;3.10;;
261;SDS011;114;48.260;10.988;2023-08-06T04:43:21;3.03;;;2.93;;
261;SDS011;114;48.260;10.988;2023-08-06T04:45:47;4.20;;;3.20;;
261;SDS011;114;48.260;10.988;2023-08-06T04:48:14;3.13;;;2.93;;
261;SDS011;114;48.260;10.988;2023-08-06T04:50:43;3.73;;;3.43;;
261;SDS011;114;48.260;10.988;2023-08-06T04:53:10;4.10;;;3.17;;
261;SDS011;114;48.260;10.988;2023-08-06T04:55:36;3.83;;;2.53;;
261;SDS011;114;48.260;10.988;2023-08-06T04:58:02;3.43;;;3.23;;
261;SDS011;114;48.260;10.988;2023-08-06T05:00:27;2.53;;;2.40;;
261;SDS011;114;48.260;10.988;2023-08-06T05:02:53;4.07;;;2.90;;
261;SDS011;114;48.260;10.988;2023-08-06T05:05:19;5.80;;;2.57;;
261;SDS011;114;48.260;10.988;2023-08-06T05:07:49;2.87;;;2.67;;
261;SDS011;114;48.260;10.988;2023-08-06T05:10:15;2.70;;;2.60;;
261;SDS011;114;48.260;10.988;2023-08-06T05:12:41;4.87;;;3.00;;
261;SDS011;114;48.260;10.988;2023-08-06T05:15:07;2.90;;;2.53;;
261;SDS011;114;48.260;10.988;2023-08-06T05:17:33;2.80;;;2.70;;
261;SDS011;114;48.260;10.988;2023-08-06T05:19:59;4.07;;;2.63;;
261;SDS011;114;48.260;10.988;2023-08-06T05:22:26;2.40;;;2.30;;
261;SDS011;114;48.260;10.988;2023-08-06T05:24:52;6.30;;;2.47;;
261;SDS011;114;48.260;10.988;2023-08-06T05:27:17;4.40;;;2.30;;
261;SDS011;114;48.260;10.988;2023-08-06T05:29:47;2.47;;;2.27;;
261;SDS011;114;48.260;10.988;2023-08-06T05:32:13;2.60;;;2.30;;
261;SDS011;114;48.260;10.988;2023-08-06T05:34:39;4.60;;;2.43;;
261;SDS011;114;48.260;10.988;2023-08-06T05:37:06;7.33;;;2.70;;
261;SDS011;114;48.260;10.988;2023-08-06T05:39:32;2.83;;;2.43;;
261;SDS011;114;48.260;10.988;2023-08-06T05:41:58;11.53;;;3.30;;
261;SDS011;114;48.260;10.988;2023-08-06T05:44:24;4.00;;;2.77;;
261;SDS011;114;48.260;10.988;2023-08-06T05:46:49;2.37;;;2.17;;
261;SDS011;114;48.260;10.988;2023-08-06T05:49:15;3.07;;;2.10;;
261;SDS011;114;48.260;10.988;2023-08-06T05:51:41;2.00;;;1.70;;
261;SDS011;114;48.260;10.988;2023-08-06T05:54:08;1.80;;;1.70;;
261;SDS011;114;48.260;10.988;2023-08-06T05:56:33;1.80;;;1.70;;
261;SDS011;114;48.260;10.988;2023-08-06T05:58:59;2.60;;;2.40;;
261;SDS011;114;48.260;10.988;2023-08-06T06:01:25;1.87;;;1.77;;
261;SDS011;114;48.260;10.988;2023-08-06T06:03:51;2.20;;;1.80;;
261;SDS011;114;48.260;10.988;2023-08-06T06:06:16;1.50;;;1.40;;
261;SDS011;114;48.260;10.988;2023-08-06T06:08:43;1.30;;;1.30;;
261;SDS011;114;48.260;10.988;2023-08-06T06:11:09;1.57;;;1.10;;
261;SDS011;114;48.260;10.988;2023-08-06T06:13:35;1.43;;;1.33;;
261;SDS011;114;48.260;10.988;2023-08-06T06:16:01;1.17;;;1.00;;
261;SDS011;114;48.260;10.988;2023-08-06T06:18:27;3.13;;;1.27;;
261;SDS011;114;48.260;10.988;2023-08-06T06:20:52;3.20;;;1.20;;
261;SDS011;114;48.260;10.988;2023-08-06T06:23:18;3.47;;;1.43;;
261;SDS011;114;48.260;10.988;2023-08-06T06:25:48;2.60;;;1.30;;
261;SDS011;114;48.260;10.988;2023-08-06T06:28:18;3.50;;;1.37;;
261;SDS011;114;48.260;10.988;2023-08-06T06:30:44;1.40;;;1.30;;
261;SDS011;114;48.260;10.988;2023-08-06T06:33:10;1.10;;;1.03;;
261;SDS011;114;48.260;10.988;2023-08-06T06:35:36;1.00;;;0.87;;
261;SDS011;114;48.260;10.988;2023-08-06T06:38:02;3.23;;;1.10;;
261;SDS011;114;48.260;10.988;2023-08-06T06:40:27;7.33;;;1.40;;
261;SDS011;114;48.260;10.988;2023-08-06T06:42:53;1.33;;;1.13;;
261;SDS011;114;48.260;10.988;2023-08-06T06:45:19;1.00;;;0.90;;
261;SDS011;114;48.260;10.988;2023-08-06T06:47:45;2.73;;;1.90;;
261;SDS011;114;48.260;10.988;2023-08-06T06:50:10;1.10;;;1.10;;
261;SDS011;114;48.260;10.988;2023-08-06T06:52:36;5.43;;;1.30;;
261;SDS011;114;48.260;10.988;2023-08-06T06:55:02;9.00;;;1.37;;
261;SDS011;114;48.260;10.988;2023-08-06T06:57:28;1.57;;;1.47;;
261;SDS011;114;48.260;10.988;2023-08-06T06:59:54;2.73;;;1.07;;
261;SDS011;114;48.260;10.988;2023-08-06T07:02:20;1.50;;;1.20;;
261;SDS011;114;48.260;10.988;2023-08-06T07:04:45;1.70;;;1.63;;
261;SDS011;114;48.260;10.988;2023-08-06T07:07:11;0.93;;;0.93;;
261;SDS011;114;48.260;10.988;2023-08-06T07:09:37;3.93;;;1.40;;
261;SDS011;114;48.260;10.988;2023-08-06T07:12:03;1.10;;;1.10;;
261;SDS011;114;48.260;10.988;2023-08-06T07:14:29;0.90;;;0.90;;
261;SDS011;114;48.260;10.988;2023-08-06T07:16:55;7.63;;;1.90;;
261;SDS011;114;48.260;10.988;2023-08-06T07:19:20;0.80;;;0.73;;
261;SDS011;114;48.260;10.988;2023-08-06T07:21:46;1.23;;;0.90;;
261;SDS011;114;48.260;10.988;2023-08-06T07:24:12;1.13;;;0.83;;
261;SDS011;114;48.260;10.988;2023-08-06T07:26:38;2.00;;;1.07;;
261;SDS011;114;48.260;10.988;2023-08-06T07:29:03;2.87;;;1.27;;
261;SDS011;114;48.260;10.988;2023-08-06T07:31:29;1.77;;;0.97;;
261;SDS011;114;48.260;10.988;2023-08-06T07:33:55;3.03;;;0.90;;
261;SDS011;114;48.260;10.988;2023-08-06T07:36:21;0.90;;;0.80;;
261;SDS011;114;48.260;10.988;2023-08-06T07:38:46;1.17;;;0.90;;
261;SDS011;114;48.260;10.988;2023-08-06T07:41:16;0.93;;;0.93;;
261;SDS011;114;48.260;10.988;2023-08-06T07:43:42;1.17;;;0.87;;
261;SDS011;114;48.260;10.988;2023-08-06T07:46:08;2.00;;;0.90;;
261;SDS011;114;48.260;10.988;2023-08-06T07:48:33;3.60;;;0.80;;
261;SDS011;114;48.260;10.988;2023-08-06T07:50:59;1.03;;;0.80;;
261;SDS011;114;48.260;10.988;2023-08-06T07:53:25;1.23;;;0.90;;
261;SDS011;114;48.260;10.988;2023-08-06T07:55:54;2.43;;;1.30;;
261;SDS011;114;48.260;10.988;2023-08-06T07:58:20;1.80;;;0.80;;
261;SDS011;114;48.260;10.988;2023-08-06T08:00:47;0.90;;;0.70;;
261;SDS011;114;48.260;10.988;2023-08-06T08:03:13;1.33;;;0.87;;
261;SDS011;114;48.260;10.988;2023-08-06T08:05:41;2.50;;;0.70;;
261;SDS011;114;48.260;10.988;2023-08-06T08:08:07;0.70;;;0.70;;
261;SDS011;114;48.260;10.988;2023-08-06T08:10:33;2.47;;;0.60;;
261;SDS011;114;48.260;10.988;2023-08-06T08:13:00;0.90;;;0.60;;
261;SDS011;114;48.260;10.988;2023-08-06T08:15:28;0.47;;;0.40;;
261;SDS011;114;48.260;10.988;2023-08-06T08:17:54;1.33;;;0.50;;
261;SDS011;114;48.260;10.988;2023-08-06T08:20:20;2.20;;;0.70;;
261;SDS011;114;48.260;10.988;2023-08-06T08:22:46;2.10;;;0.60;;
261;SDS011;114;48.260;10.988;2023-08-06T08:25:13;0.53;;;0.40;;
261;SDS011;114;48.260;10.988;2023-08-06T08:27:39;1.27;;;0.70;;
261;SDS011;114;48.260;10.988;2023-08-06T08:30:04;0.73;;;0.50;;
261;SDS011;114;48.260;10.988;2023-08-06T08:32:31;0.87;;;0.53;;
261;SDS011;114;48.260;10.988;2023-08-06T08:34:56;1.67;;;0.50;;
261;SDS011;114;48.260;10.988;2023-08-06T08:37:23;1.13;;;0.50;;
261;SDS011;114;48.260;10.988;2023-08-06T08:39:49;1.07;;;0.63;;
261;SDS011;114;48.260;10.988;2023-08-06T08:42:15;0.70;;;0.50;;
261;SDS011;114;48.260;10.988;2023-08-06T08:44:42;0.63;;;0.60;;
261;SDS011;114;48.260;10.988;2023-08-06T08:47:08;1.93;;;0.60;;
261;SDS011;114;48.260;10.988;2023-08-06T08:49:35;0.50;;;0.50;;
261;SDS011;114;48.260;10.988;2023-08-06T08:52:02;2.43;;;0.60;;
261;SDS011;114;48.260;10.988;2023-08-06T08:54:33;0.80;;;0.40;;
261;SDS011;114;48.260;10.988;2023-08-06T08:56:59;0.50;;;0.30;;
261;SDS011;114;48.260;10.988;2023-08-06T08:59:25;1.37;;;0.33;;
261;SDS011;114;48.260;10.988;2023-08-06T09:01:51;0.70;;;0.47;;
261;SDS011;114;48.260;10.988;2023-08-06T09:04:18;0.50;;;0.30;;
261;SDS011;114;48.260;10.988;2023-08-06T09:06:50;0.50;;;0.30;;
261;SDS011;114;48.260;10.988;2023-08-06T09:09:24;0.60;;;0.30;;
261;SDS011;114;48.260;10.988;2023-08-06T09:11:53;1.50;;;0.40;;
261;SDS011;114;48.260;10.988;2023-08-06T09:14:24;0.40;;;0.40;;
261;SDS011;114;48.260;10.988;2023-08-06T09:16:50;0.50;;;0.40;;
261;SDS011;114;48.260;10.988;2023-08-06T09:19:16;5.70;;;0.57;;
261;SDS011;114;48.260;10.988;2023-08-06T09:21:43;1.80;;;0.70;;
261;SDS011;114;48.260;10.988;2023-08-06T09:24:13;1.60;;;0.40;;
261;SDS011;114;48.260;10.988;2023-08-06T09:26:40;3.63;;;0.50;;
261;SDS011;114;48.260;10.988;2023-08-06T09:29:08;1.63;;;0.50;;
261;SDS011;114;48.260;10.988;2023-08-06T09:31:42;0.60;;;0.60;;
261;SDS011;114;48.260;10.988;2023-08-06T09:34:10;1.10;;;0.37;;
261;SDS011;114;48.260;10.988;2023-08-06T09:36:41;0.60;;;0.33;;
261;SDS011;114;48.260;10.988;2023-08-06T09:39:18;2.37;;;0.50;;
261;SDS011;114;48.260;10.988;2023-08-06T09:41:45;0.90;;;0.40;;
261;SDS011;114;48.260;10.988;2023-08-06T09:44:18;1.30;;;0.33;;
261;SDS011;114;48.260;10.988;2023-08-06T09:46:50;2.53;;;0.50;;
261;SDS011;114;48.260;10.988;2023-08-06T09:49:24;0.50;;;0.40;;
261;SDS011;114;48.260;10.988;2023-08-06T09:51:53;0.40;;;0.30;;
261;SDS011;114;48.260;10.988;2023-08-06T09:54:24;0.60;;;0.30;;
261;SDS011;114;48.260;10.988;2023-08-06T09:56:52;1.13;;;0.40;;
261;SDS011;114;48.260;10.988;2023-08-06T09:59:20;0.40;;;0.30;;
261;SDS011;114;48.260;10.988;2023-08-06T10:01:46;2.10;;;0.40;;
261;SDS011;114;48.260;10.988;2023-08-06T10:04:14;2.33;;;0.30;;
261;SDS011;114;48.260;10.988;2023-08-06T10:06:46;1.20;;;0.37;;
261;SDS011;114;48.260;10.988;2023-08-06T10:09:18;0.57;;;0.30;;
261;SDS011;114;48.260;10.988;2023-08-06T10:11:44;0.77;;;0.30;;
261;SDS011;114;48.260;10.988;2023-08-06T10:14:16;0.60;;;0.30;;
261;SDS011;114;48.260;10.988;2023-08-06T10:16:51;1.70;;;0.30;;
261;SDS011;114;48.260;10.988;2023-08-06T10:19:19;0.50;;;0.30;;
261;SDS011;114;48.260;10.988;2023-08-06T10:24:47;0.30;;;0.20;;
261;SDS011;114;48.260;10.988;2023-08-06T10:27:21;1.33;;;0.50;;
261;SDS011;114;48.260;10.988;2023-08-06T10:29:48;0.40;;;0.30;;
261;SDS011;114;48.260;10.988;2023-08-06T10:32:17;0.60;;;0.30;;
261;SDS011;114;48.260;10.988;2023-08-06T10:34:52;0.43;;;0.30;;
261;SDS011;114;48.260;10.988;2023-08-06T10:37:22;0.60;;;0.30;;
261;SDS011;114;48.260;10.988;2023-08-06T10:39:49;0.50;;;0.30;;
261;SDS011;114;48.260;10.988;2023-08-06T10:42:22;0.70;;;0.30;;
261;SDS011;114;48.260;10.988;2023-08-06T10:47:59;3.40;;;0.43;;
261;SDS011;114;48.260;10.988;2023-08-06T10:50:25;0.93;;;0.30;;
261;SDS011;114;48.260;10.988;2023-08-06T10:52:51;0.50;;;0.30;;
261;SDS011;114;48.260;10.988;2023-08-06T10:57:52;0.50;;;0.30;;
261;SDS011;114;48.260;10.988;2023-08-06T11:00:20;0.40;;;0.20;;
261;SDS011;114;48.260;10.988;2023-08-06T11:02:47;1.53;;;0.30;;
261;SDS011;114;48.260;10.988;2023-08-06T11:05:14;1.07;;;0.60;;
261;SDS011;114;48.260;10.988;2023-08-06T11:07:40;0.40;;;0.20;;
261;SDS011;114;48.260;10.988;2023-08-06T11:10:07;0.40;;;0.30;;
261;SDS011;114;48.260;10.988;2023-08-06T11:12:34;0.60;;;0.20;;
261;SDS011;114;48.260;10.988;2023-08-06T11:15:00;4.50;;;0.30;;
261;SDS011;114;48.260;10.988;2023-08-06T11:17:27;0.57;;;0.30;;
261;SDS011;114;48.260;10.988;2023-08-06T11:19:54;1.13;;;0.30;;
261;SDS011;114;48.260;10.988;2023-08-06T11:22:20;0.93;;;0.30;;
261;SDS011;114;48.260;10.988;2023-08-06T11:24:47;0.50;;;0.30;;
261;SDS011;114;48.260;10.988;2023-08-06T11:27:13;1.60;;;0.30;;
261;SDS011;114;48.260;10.988;2023-08-06T11:29:40;0.70;;;0.30;;
261;SDS011;114;48.260;10.988;2023-08-06T11:32:07;0.50;;;0.40;;
261;SDS011;114;48.260;10.988;2023-08-06T11:34:33;0.70;;;0.30;;
261;SDS011;114;48.260;10.988;2023-08-06T11:36:59;0.40;;;0.30;;
261;SDS011;114;48.260;10.988;2023-08-06T11:39:26;0.40;;;0.30;;
261;SDS011;114;48.260;10.988;2023-08-06T11:41:52;0.40;;;0.30;;
261;SDS011;114;48.260;10.988;2023-08-06T11:44:21;0.40;;;0.30;;
261;SDS011;114;48.260;10.988;2023-08-06T11:46:53;0.50;;;0.40;;
261;SDS011;114;48.260;10.988;2023-08-06T11:52:10;0.40;;;0.30;;
261;SDS011;114;48.260;10.988;2023-08-06T11:54:48;0.60;;;0.30;;
261;SDS011;114;48.260;10.988;2023-08-06T11:57:40;0.40;;;0.30;;
261;SDS011;114;48.260;10.988;2023-08-06T12:00:12;0.40;;;0.30;;
261;SDS011;114;48.260;10.988;2023-08-06T12:02:39;0.57;;;0.50;;
261;SDS011;114;48.260;10.988;2023-08-06T12:05:13;0.60;;;0.40;;
261;SDS011;114;48.260;10.988;2023-08-06T12:07:46;0.60;;;0.30;;
261;SDS011;114;48.260;10.988;2023-08-06T12:10:13;0.63;;;0.33;;
261;SDS011;114;48.260;10.988;2023-08-06T12:12:40;0.70;;;0.30;;
261;SDS011;114;48.260;10.988;2023-08-06T12:15:06;0.40;;;0.33;;
261;SDS011;114;48.260;10.988;2023-08-06T12:17:33;0.40;;;0.30;;
261;SDS011;114;48.260;10.988;2023-08-06T12:19:59;0.30;;;0.23;;
261;SDS011;114;48.260;10.988;2023-08-06T12:22:26;0.40;;;0.30;;
261;SDS011;114;48.260;10.988;2023-08-06T12:24:52;0.50;;;0.27;;
261;SDS011;114;48.260;10.988;2023-08-06T12:27:18;0.40;;;0.23;;
261;SDS011;114;48.260;10.988;2023-08-06T12:29:44;0.40;;;0.30;;
261;SDS011;114;48.260;10.988;2023-08-06T12:32:12;0.40;;;0.30;;
261;SDS011;114;48.260;10.988;2023-08-06T12:34:38;1.03;;;0.30;;
261;SDS011;114;48.260;10.988;2023-08-06T12:37:05;0.40;;;0.30;;
261;SDS011;114;48.260;10.988;2023-08-06T12:39:32;0.30;;;0.20;;
261;SDS011;114;48.260;10.988;2023-08-06T12:41:59;0.50;;;0.40;;
261;SDS011;114;48.260;10.988;2023-08-06T12:44:25;0.40;;;0.30;;
261;SDS011;114;48.260;10.988;2023-08-06T12:46:51;0.70;;;0.30;;
261;SDS011;114;48.260;10.988;2023-08-06T12:49:18;0.40;;;0.30;;
261;SDS011;114;48.260;10.988;2023-08-06T12:51:46;0.80;;;0.30;;
261;SDS011;114;48.260;10.988;2023-08-06T12:54:18;0.67;;;0.40;;
261;SDS011;114;48.260;10.988;2023-08-06T12:56:45;0.57;;;0.30;;
261;SDS011;114;48.260;10.988;2023-08-06T12:59:12;0.70;;;0.30;;
261;SDS011;114;48.260;10.988;2023-08-06T13:01:41;0.30;;;0.20;;
261;SDS011;114;48.260;10.988;2023-08-06T13:04:07;0.40;;;0.30;;
261;SDS011;114;48.260;10.988;2023-08-06T13:06:34;0.40;;;0.30;;
261;SDS011;114;48.260;10.988;2023-08-06T13:09:04;0.50;;;0.40;;
261;SDS011;114;48.260;10.988;2023-08-06T13:11:33;0.37;;;0.30;;
261;SDS011;114;48.260;10.988;2023-08-06T13:14:11;0.43;;;0.30;;
261;SDS011;114;48.260;10.988;2023-08-06T13:16:39;0.70;;;0.40;;
261;SDS011;114;48.260;10.988;2023-08-06T13:19:06;0.40;;;0.30;;
261;SDS011;114;48.260;10.988;2023-08-06T13:21:33;0.40;;;0.30;;
261;SDS011;114;48.260;10.988;2023-08-06T13:24:01;0.30;;;0.23;;
261;SDS011;114;48.260;10.988;2023-08-06T13:26:28;0.57;;;0.57;;
261;SDS011;114;48.260;10.988;2023-08-06T13:28:54;0.40;;;0.30;;
261;SDS011;114;48.260;10.988;2023-08-06T13:31:21;0.40;;;0.30;;
261;SDS011;114;48.260;10.988;2023-08-06T13:33:47;0.40;;;0.30;;
261;SDS011;114;48.260;10.988;2023-08-06T13:36:14;0.50;;;0.30;;
261;SDS011;114;48.260;10.988;2023-08-06T13:38:41;0.50;;;0.30;;
261;SDS011;114;48.260;10.988;2023-08-06T13:41:06;0.40;;;0.30;;
261;SDS011;114;48.260;10.988;2023-08-06T13:43:32;1.23;;;1.13;;
261;SDS011;114;48.260;10.988;2023-08-06T13:45:58;0.40;;;0.30;;
261;SDS011;114;48.260;10.988;2023-08-06T13:48:23;0.80;;;0.30;;
261;SDS011;114;48.260;10.988;2023-08-06T13:50:49;0.40;;;0.30;;
261;SDS011;114;48.260;10.988;2023-08-06T13:53:15;1.80;;;0.50;;
261;SDS011;114;48.260;10.988;2023-08-06T13:55:40;0.40;;;0.30;;
261;SDS011;114;48.260;10.988;2023-08-06T13:58:06;2.20;;;0.60;;
261;SDS011;114;48.260;10.988;2023-08-06T14:00:32;1.20;;;0.50;;
261;SDS011;114;48.260;10.988;2023-08-06T14:02:58;1.27;;;0.47;;
261;SDS011;114;48.260;10.988;2023-08-06T14:05:24;0.60;;;0.60;;
261;SDS011;114;48.260;10.988;2023-08-06T14:07:49;2.83;;;0.40;;
261;SDS011;114;48.260;10.988;2023-08-06T14:10:15;0.87;;;0.63;;
261;SDS011;114;48.260;10.988;2023-08-06T14:12:41;0.50;;;0.30;;
261;SDS011;114;48.260;10.988;2023-08-06T14:15:07;0.63;;;0.30;;
261;SDS011;114;48.260;10.988;2023-08-06T14:17:33;0.50;;;0.33;;
261;SDS011;114;48.260;10.988;2023-08-06T14:19:59;1.57;;;0.60;;
261;SDS011;114;48.260;10.988;2023-08-06T14:22:25;0.70;;;0.30;;
261;SDS011;114;48.260;10.988;2023-08-06T14:24:51;3.10;;;0.40;;
261;SDS011;114;48.260;10.988;2023-08-06T14:27:17;0.40;;;0.30;;
261;SDS011;114;48.260;10.988;2023-08-06T14:29:43;0.50;;;0.40;;
261;SDS011;114;48.260;10.988;2023-08-06T14:32:08;0.40;;;0.20;;
261;SDS011;114;48.260;10.988;2023-08-06T14:34:34;0.80;;;0.50;;
261;SDS011;114;48.260;10.988;2023-08-06T14:37:00;0.40;;;0.30;;
261;SDS011;114;48.260;10.988;2023-08-06T14:39:25;2.53;;;0.40;;
261;SDS011;114;48.260;10.988;2023-08-06T14:41:51;1.70;;;0.53;;
261;SDS011;114;48.260;10.988;2023-08-06T14:44:17;1.87;;;0.50;;
261;SDS011;114;48.260;10.988;2023-08-06T14:46:42;0.40;;;0.40;;
261;SDS011;114;48.260;10.988;2023-08-06T14:49:08;0.60;;;0.37;;
261;SDS011;114;48.260;10.988;2023-08-06T14:51:34;0.80;;;0.40;;
261;SDS011;114;48.260;10.988;2023-08-06T14:53:59;0.73;;;0.40;;
261;SDS011;114;48.260;10.988;2023-08-06T14:56:25;0.50;;;0.40;;
261;SDS011;114;48.260;10.988;2023-08-06T14:58:51;0.53;;;0.50;;
261;SDS011;114;48.260;10.988;2023-08-06T15:01:16;0.70;;;0.40;;
261;SDS011;114;48.260;10.988;2023-08-06T15:03:42;0.67;;;0.67;;
261;SDS011;114;48.260;10.988;2023-08-06T15:06:08;1.60;;;0.40;;
261;SDS011;114;48.260;10.988;2023-08-06T15:08:33;0.70;;;0.40;;
261;SDS011;114;48.260;10.988;2023-08-06T15:10:59;0.50;;;0.30;;
261;SDS011;114;48.260;10.988;2023-08-06T15:13:27;0.70;;;0.40;;
261;SDS011;114;48.260;10.988;2023-08-06T15:15:54;0.60;;;0.60;;
261;SDS011;114;48.260;10.988;2023-08-06T15:18:19;2.57;;;0.70;;
261;SDS011;114;48.260;10.988;2023-08-06T15:20:45;0.40;;;0.33;;
261;SDS011;114;48.260;10.988;2023-08-06T15:23:11;0.70;;;0.50;;
261;SDS011;114;48.260;10.988;2023-08-06T15:25:36;1.03;;;0.57;;
261;SDS011;114;48.260;10.988;2023-08-06T15:28:02;0.60;;;0.50;;
261;SDS011;114;48.260;10.988;2023-08-06T15:30:28;0.57;;;0.47;;
261;SDS011;114;48.260;10.988;2023-08-06T15:32:54;0.67;;;0.47;;
261;SDS011;114;48.260;10.988;2023-08-06T15:35:19;0.50;;;0.50;;
261;SDS011;114;48.260;10.988;2023-08-06T15:37:45;0.70;;;0.40;;
261;SDS011;114;48.260;10.988;2023-08-06T15:40:11;0.90;;;0.60;;
261;SDS011;114;48.260;10.988;2023-08-06T15:42:36;2.00;;;0.60;;
261;SDS011;114;48.260;10.988;2023-08-06T15:45:02;0.60;;;0.30;;
261;SDS011;114;48.260;10.988;2023-08-06T15:47:29;1.00;;;0.40;;
261;SDS011;114;48.260;10.988;2023-08-06T15:49:54;0.60;;;0.40;;